Time;durP1;ratioP1;P1;durP2;ratioP2;P2;SDS_P1;SDS_P2;PMS_P1;PMS_P2;Temp;Humidity;BMP_temperature;BMP_pressure;BME280_temperature;BME280_humidity;BME280_pressure;Samples;Min_cycle;Max_cycle;Signal;HPM_P1;HPM_P2
2021/07/10 00:00:49;;;;;;;4.65;3.42;;;;;;;9.82;100.00;93525.50;2098140;28;20020;-83
2021/07/10 00:01:49;;;;;;;4.78;3.17;;;;;;;9.81;100.00;93529.34;2106478;28;20127;-84
2021/07/10 00:02:50;;;;;;;5.68;3.90;;;;;;;9.83;100.00;93527.03;2098112;28;20127;-84
2021/07/10 00:03:51;;;;;;;3.50;2.92;;;;;;;9.81;100.00;93525.91;2089689;28;20024;-83
2021/07/10 00:04:51;;;;;;;3.65;3.33;;;;;;;9.81;100.00;93524.00;2089924;28;20036;-83
2021/07/10 00:05:52;;;;;;;5.07;3.40;;;;;;;9.72;100.00;93517.63;2099915;28;20052;-83
2021/07/10 00:06:54;;;;;;;3.70;3.00;;;;;;;9.76;100.00;93519.13;2096857;28;20094;-83
2021/07/10 00:07:55;;;;;;;3.60;3.30;;;;;;;9.74;100.00;93518.75;2098123;28;20044;-82
2021/07/10 00:08:56;;;;;;;3.97;3.60;;;;;;;9.77;100.00;93525.19;2089702;28;20458;-84
2021/07/10 00:09:56;;;;;;;6.22;3.28;;;;;;;9.74;100.00;93521.41;2089792;28;20027;-84
2021/07/10 00:10:57;;;;;;;3.88;2.92;;;;;;;9.66;100.00;93522.66;2097649;28;20020;-83
2021/07/10 00:11:58;;;;;;;3.63;3.28;;;;;;;9.60;100.00;93521.59;2098197;28;20024;-83
2021/07/10 00:12:58;;;;;;;4.13;2.85;;;;;;;9.61;100.00;93514.31;2096619;28;20484;-83
2021/07/10 00:13:59;;;;;;;3.40;3.10;;;;;;;9.62;100.00;93513.19;2089634;28;20529;-83
2021/07/10 00:15:00;;;;;;;3.20;2.95;;;;;;;9.55;100.00;93514.03;2089474;28;20024;-83
2021/07/10 00:16:00;;;;;;;3.90;3.15;;;;;;;9.58;100.00;93519.31;2089647;28;20056;-83
2021/07/10 00:17:01;;;;;;;4.78;3.10;;;;;;;9.56;100.00;93510.94;2106444;28;20498;-83
2021/07/10 00:18:03;;;;;;;5.40;2.92;;;;;;;9.56;100.00;93507.53;2098058;28;20021;-84
2021/07/10 00:19:03;;;;;;;3.60;2.80;;;;;;;9.59;100.00;93499.47;2106065;28;20016;-84
2021/07/10 00:20:06;;;;;;;3.30;3.00;;;;;;;9.63;100.00;93502.09;2098487;28;20020;-84
2021/07/10 00:21:07;;;;;;;3.50;3.20;;;;;;;9.50;100.00;93499.22;2110290;27;20449;-83
2021/07/10 00:22:08;;;;;;;4.88;2.83;;;;;;;9.51;100.00;93506.03;2106393;28;20034;-84
2021/07/10 00:23:09;;;;;;;3.60;2.88;;;;;;;9.47;100.00;93510.66;2090306;28;20421;-83
2021/07/10 00:24:09;;;;;;;3.13;2.90;;;;;;;9.43;100.00;93506.53;2097916;28;20087;-84
2021/07/10 00:25:17;;;;;;;3.45;3.15;;;;;;;9.48;100.00;93503.41;2097866;28;20032;-83
2021/07/10 00:26:17;;;;;;;3.72;3.30;;;;;;;9.53;100.00;93503.75;2098853;28;20024;-83
2021/07/10 00:27:18;;;;;;;5.10;3.33;;;;;;;9.49;100.00;93500.38;2097753;28;20033;-83
2021/07/10 00:28:19;;;;;;;4.35;2.92;;;;;;;9.46;100.00;93503.81;2089413;28;20375;-83
2021/07/10 00:29:19;;;;;;;3.10;2.90;;;;;;;9.44;100.00;93505.38;2106402;28;20059;-84
2021/07/10 00:30:21;;;;;;;5.68;3.20;;;;;;;9.37;100.00;93500.88;2106286;28;20108;-84
2021/07/10 00:31:22;;;;;;;3.53;3.15;;;;;;;9.39;100.00;93501.22;2098240;28;20492;-83
2021/07/10 00:32:23;;;;;;;3.50;3.20;;;;;;;9.41;100.00;93498.94;2097836;28;20032;-82
2021/07/10 00:33:24;;;;;;;5.70;3.20;;;;;;;9.40;100.00;93494.75;2089669;28;20095;-84
2021/07/10 00:34:24;;;;;;;4.63;3.40;;;;;;;9.39;100.00;93492.47;2089454;28;20055;-84
2021/07/10 00:35:25;;;;;;;3.88;3.05;;;;;;;9.33;100.00;93486.81;2097618;28;20103;-84
2021/07/10 00:36:26;;;;;;;4.10;3.42;;;;;;;9.36;100.00;93491.38;2106180;28;20024;-83
2021/07/10 00:37:27;;;;;;;5.55;3.17;;;;;;;9.38;100.00;93490.97;2106250;28;20024;-84
2021/07/10 00:38:28;;;;;;;4.93;3.45;;;;;;;9.34;100.00;93494.41;2106207;28;20412;-83
2021/07/10 00:39:28;;;;;;;3.97;3.28;;;;;;;9.34;100.00;93496.31;2114595;28;20778;-84
2021/07/10 00:40:29;;;;;;;4.43;3.03;;;;;;;9.34;100.00;93496.31;2106283;28;20036;-83
2021/07/10 00:41:30;;;;;;;3.65;3.35;;;;;;;9.35;100.00;93497.88;2097716;28;20035;-84
2021/07/10 00:42:32;;;;;;;3.90;3.53;;;;;;;9.33;100.00;93502.81;2098013;28;20066;-84
2021/07/10 00:43:32;;;;;;;4.63;3.47;;;;;;;9.31;100.00;93499.81;2089852;28;20078;-84
2021/07/10 00:44:33;;;;;;;4.32;3.45;;;;;;;9.29;100.00;93492.19;2097670;28;20115;-84
2021/07/10 00:45:34;;;;;;;4.05;3.45;;;;;;;9.28;100.00;93492.59;2097333;28;20103;-84
2021/07/10 00:46:34;;;;;;;6.95;3.25;;;;;;;9.25;100.00;93486.13;2088759;28;20138;-83
2021/07/10 00:47:36;;;;;;;3.63;3.28;;;;;;;9.20;100.00;93483.91;2105976;28;20036;-83
2021/07/10 00:48:37;;;;;;;4.35;3.95;;;;;;;9.18;100.00;93485.47;2122960;27;20023;-84
2021/07/10 00:49:38;;;;;;;4.32;3.63;;;;;;;9.14;100.00;93482.84;2105405;28;20024;-84
2021/07/10 00:50:38;;;;;;;4.38;3.38;;;;;;;9.16;100.00;93477.84;2089508;28;20751;-84
2021/07/10 00:51:39;;;;;;;4.38;3.47;;;;;;;9.14;100.00;93477.50;2089521;28;20033;-85
2021/07/10 00:52:41;;;;;;;6.22;3.58;;;;;;;9.15;100.00;93478.25;2097877;28;20047;-84
2021/07/10 00:53:41;;;;;;;5.47;3.97;;;;;;;9.10;100.00;93473.38;2106113;28;20026;-84
2021/07/10 00:54:42;;;;;;;4.78;3.78;;;;;;;9.16;100.00;93474.44;2097803;28;20449;-83
2021/07/10 00:55:43;;;;;;;4.95;3.70;;;;;;;9.07;100.00;93473.00;2097736;28;20074;-84
2021/07/10 00:56:47;;;;;;;5.40;3.28;;;;;;;9.07;100.00;93469.56;2097615;28;20015;-83
2021/07/10 00:57:50;;;;;;;5.85;3.35;;;;;;;9.03;100.00;93469.59;2106558;28;20028;-84
2021/07/10 00:58:52;;;;;;;4.13;3.72;;;;;;;9.08;100.00;93469.16;2097942;28;20035;-84
2021/07/10 00:59:53;;;;;;;3.80;3.50;;;;;;;9.12;100.00;93471.03;2089449;28;20421;-84
2021/07/10 01:00:54;;;;;;;4.63;3.47;;;;;;;9.10;100.00;93465.38;2091568;28;20029;-85
2021/07/10 01:01:55;;;;;;;4.70;3.60;;;;;;;9.11;100.00;93474.88;2106220;27;20038;-85
2021/07/10 01:02:56;;;;;;;5.70;4.28;;;;;;;9.12;100.00;93474.47;2114507;28;20034;-85
2021/07/10 01:03:57;;;;;;;4.05;3.33;;;;;;;9.06;100.00;93468.06;2097679;28;20393;-84
2021/07/10 01:04:57;;;;;;;5.05;3.85;;;;;;;9.04;100.00;93471.13;2105940;28;20035;-84
2021/07/10 01:05:59;;;;;;;3.80;3.40;;;;;;;9.02;100.00;93470.75;2095065;28;20066;-84
2021/07/10 01:07:00;;;;;;;5.70;3.58;;;;;;;9.04;100.00;93468.47;2089668;28;20116;-84
2021/07/10 01:08:01;;;;;;;6.22;3.75;;;;;;;8.99;100.00;93468.13;2097599;28;20465;-83
2021/07/10 01:09:02;;;;;;;6.28;4.25;;;;;;;8.97;100.00;93467.78;2089351;28;20782;-84
2021/07/10 01:10:03;;;;;;;4.30;3.70;;;;;;;9.00;100.00;93469.63;2083927;28;20035;-84
2021/07/10 01:11:05;;;;;;;6.63;3.55;;;;;;;9.04;100.00;93465.03;2105857;28;20516;-84
2021/07/10 01:12:06;;;;;;;4.30;3.60;;;;;;;9.03;100.00;93463.50;2097798;28;20144;-84
2021/07/10 01:13:08;;;;;;;4.55;3.60;;;;;;;9.03;100.00;93463.50;2097448;28;20050;-85
2021/07/10 01:14:09;;;;;;;6.15;3.70;;;;;;;9.00;100.00;93459.75;2089722;28;20028;-84
2021/07/10 01:15:12;;;;;;;4.50;3.35;;;;;;;8.90;100.00;93460.59;2089198;28;20062;-83
2021/07/10 01:16:13;;;;;;;8.70;3.35;;;;;;;8.87;100.00;93465.94;2098392;28;20536;-84
2021/07/10 01:17:14;;;;;;;6.38;3.13;;;;;;;8.90;100.00;93459.84;2097575;28;20017;-84
2021/07/10 01:18:14;;;;;;;6.32;3.90;;;;;;;8.86;100.00;93467.88;2097574;28;20417;-84
2021/07/10 01:19:27;;;;;;;4.10;3.53;;;;;;;8.87;100.00;93466.72;2097689;28;20020;-83
2021/07/10 01:20:28;;;;;;;5.43;3.85;;;;;;;8.83;100.00;93463.34;2090457;28;20032;-84
2021/07/10 01:21:29;;;;;;;3.92;3.35;;;;;;;8.77;100.00;93470.22;2097581;28;20032;-84
2021/07/10 01:22:29;;;;;;;6.40;3.70;;;;;;;8.77;100.00;93464.91;2112646;28;20032;-83
2021/07/10 01:23:30;;;;;;;5.95;3.42;;;;;;;8.75;100.00;93462.66;2105605;28;20031;-84
2021/07/10 01:24:31;;;;;;;5.80;3.47;;;;;;;8.82;100.00;93461.81;2097533;28;20079;-85
2021/07/10 01:25:31;;;;;;;7.18;3.97;;;;;;;8.86;100.00;93456.44;2089096;28;20059;-83
2021/07/10 01:26:32;;;;;;;4.53;3.60;;;;;;;8.86;100.00;93461.78;2097432;28;20021;-83
2021/07/10 01:27:33;;;;;;;4.18;3.78;;;;;;;8.80;100.00;93462.22;2105949;28;20020;-84
2021/07/10 01:28:34;;;;;;;3.60;3.22;;;;;;;8.78;100.00;93459.19;2097496;28;20021;-84
2021/07/10 01:29:36;;;;;;;3.53;3.20;;;;;;;8.77;100.00;93459.56;2097528;28;20530;-84
2021/07/10 01:30:38;;;;;;;4.68;3.72;;;;;;;8.71;100.00;93456.59;2098400;28;20039;-83
2021/07/10 01:31:39;;;;;;;4.05;3.45;;;;;;;8.75;100.00;93461.91;2093870;28;20029;-84
2021/07/10 01:32:41;;;;;;;4.13;3.42;;;;;;;8.78;100.00;93445.88;2097527;28;20104;-84
2021/07/10 01:33:42;;;;;;;4.05;3.10;;;;;;;8.77;100.00;93451.56;2097285;28;20035;-84
2021/07/10 01:34:47;;;;;;;4.22;3.60;;;;;;;8.67;100.00;93447.13;2089121;28;20397;-84
2021/07/10 01:35:49;;;;;;;3.75;3.20;;;;;;;8.71;100.00;93445.94;2089284;28;20025;-84
2021/07/10 01:36:50;;;;;;;4.65;3.70;;;;;;;8.73;100.00;93437.53;2084587;28;20024;-84
2021/07/10 01:37:51;;;;;;;3.92;3.60;;;;;;;8.69;100.00;93440.25;2105964;28;20032;-84
2021/07/10 01:38:52;;;;;;;5.82;3.63;;;;;;;8.74;100.00;93445.16;2114166;28;20092;-83
2021/07/10 01:39:52;;;;;;;5.75;3.30;;;;;;;8.65;100.00;93441.41;2105832;28;20062;-83
2021/07/10 01:40:53;;;;;;;4.60;3.33;;;;;;;8.67;100.00;93439.13;2097328;28;20021;-84
2021/07/10 01:41:54;;;;;;;4.50;3.90;;;;;;;8.60;100.00;93439.19;2089100;28;20465;-84
2021/07/10 01:42:55;;;;;;;5.70;3.97;;;;;;;8.60;100.00;93434.59;2097264;28;20408;-83
2021/07/10 01:43:56;;;;;;;4.95;4.00;;;;;;;8.62;100.00;93426.22;2097401;28;20032;-84
2021/07/10 01:44:57;;;;;;;4.18;3.67;;;;;;;8.65;100.00;93436.06;2088946;28;20111;-84
2021/07/10 01:45:58;;;;;;;4.70;3.78;;;;;;;8.54;100.00;93434.28;2097384;28;20024;-83
2021/07/10 01:46:59;;;;;;;4.30;3.42;;;;;;;8.61;100.00;93430.06;2097074;28;20764;-84
2021/07/10 01:48:00;;;;;;;4.72;3.75;;;;;;;8.59;100.00;93433.09;2097087;28;20024;-83
2021/07/10 01:49:01;;;;;;;6.45;4.43;;;;;;;8.49;100.00;93434.72;2089378;28;20055;-84
2021/07/10 01:50:05;;;;;;;5.85;3.50;;;;;;;8.47;100.00;93436.25;2097318;28;20123;-84
2021/07/10 01:51:05;;;;;;;4.13;3.53;;;;;;;8.53;100.00;93435.44;2105621;28;20024;-84
2021/07/10 01:52:06;;;;;;;4.82;4.15;;;;;;;8.52;100.00;93431.25;2097369;28;20067;-84
2021/07/10 01:53:09;;;;;;;5.15;4.03;;;;;;;8.58;100.00;93434.25;2105579;28;20047;-84
2021/07/10 01:54:10;;;;;;;4.35;3.70;;;;;;;8.53;100.00;93429.34;2097504;28;20024;-84
2021/07/10 01:55:14;;;;;;;6.40;3.95;;;;;;;8.49;100.00;93424.06;2097175;28;20035;-83
2021/07/10 01:56:15;;;;;;;6.10;3.90;;;;;;;8.48;100.00;93427.88;2089887;28;20040;-84
2021/07/10 01:57:17;;;;;;;8.48;3.90;;;;;;;8.44;100.00;93419.16;2100391;28;20082;-83
2021/07/10 01:58:18;;;;;;;5.10;3.60;;;;;;;8.50;100.00;93424.81;2097212;28;20032;-83
2021/07/10 01:59:19;;;;;;;6.15;4.07;;;;;;;8.48;100.00;93419.88;2097110;28;20036;-83
2021/07/10 02:00:22;;;;;;;7.43;4.13;;;;;;;8.51;100.00;93421.75;2097366;28;20218;-84
2021/07/10 02:01:23;;;;;;;6.68;3.70;;;;;;;8.52;100.00;93417.19;2089826;28;20028;-83
2021/07/10 02:02:24;;;;;;;4.13;3.50;;;;;;;8.48;100.00;93413.78;2105813;28;20024;-84
2021/07/10 02:03:25;;;;;;;6.47;3.95;;;;;;;8.50;100.00;93419.47;2097366;28;20501;-83
2021/07/10 02:06:12;;;;;;;;;;;;;;;8.44;100.00;93411.16;2144069;27;20543;-84
2021/07/10 02:07:14;;;;;;;5.93;3.60;;;;;;;8.47;100.00;93413.03;2118952;28;20310;-83
2021/07/10 02:08:15;;;;;;;4.10;3.42;;;;;;;8.42;100.00;93418.78;2113172;27;20034;-84
2021/07/10 02:09:16;;;;;;;7.18;4.35;;;;;;;8.41;100.00;93419.19;2121330;28;20027;-83
2021/07/10 02:10:19;;;;;;;4.70;4.20;;;;;;;8.41;100.00;93417.28;2112965;28;20024;-84
2021/07/10 02:11:21;;;;;;;4.38;3.72;;;;;;;8.40;100.00;93415.75;2104861;28;20055;-83
2021/07/10 02:12:22;;;;;;;7.93;4.13;;;;;;;8.40;100.00;93410.44;2104628;28;20119;-84
2021/07/10 02:13:22;;;;;;;5.65;4.00;;;;;;;8.36;100.00;93412.34;2104507;28;20028;-83
2021/07/10 02:14:23;;;;;;;4.85;4.10;;;;;;;8.38;100.00;93412.72;2102042;28;20032;-84
2021/07/10 02:15:24;;;;;;;4.32;3.90;;;;;;;8.37;100.00;93416.53;2104438;28;20025;-84
2021/07/10 02:16:25;;;;;;;5.93;4.53;;;;;;;8.36;100.00;93416.91;2110490;28;20024;-83
2021/07/10 02:17:26;;;;;;;6.43;4.25;;;;;;;8.40;100.00;93420.34;2104555;28;20020;-83
2021/07/10 02:18:26;;;;;;;5.53;3.70;;;;;;;8.36;100.00;93419.56;2112882;28;20076;-83
2021/07/10 02:19:27;;;;;;;8.73;4.03;;;;;;;8.38;100.00;93417.28;2121305;28;20065;-83
2021/07/10 02:20:28;;;;;;;6.25;3.72;;;;;;;8.32;100.00;93415.03;2112799;28;20481;-82
2021/07/10 02:21:28;;;;;;;9.60;4.15;;;;;;;8.29;100.00;93426.47;2112580;28;20032;-83
2021/07/10 02:22:29;;;;;;;6.45;4.13;;;;;;;8.29;100.00;93420.38;2104357;28;20449;-82
2021/07/10 02:23:30;;;;;;;7.30;4.18;;;;;;;8.32;100.00;93412.38;2112538;28;20048;-82
2021/07/10 02:24:31;;;;;;;6.28;4.13;;;;;;;8.28;100.00;93416.97;2104379;28;20103;-83
2021/07/10 02:25:32;;;;;;;5.85;3.58;;;;;;;8.26;100.00;93410.53;2112546;28;20024;-83
2021/07/10 02:26:34;;;;;;;8.02;3.80;;;;;;;8.31;100.00;93410.09;2112906;28;20545;-83
2021/07/10 02:27:35;;;;;;;7.20;3.90;;;;;;;8.27;100.00;93407.47;2112809;28;20564;-82
2021/07/10 02:28:35;;;;;;;5.03;4.30;;;;;;;8.22;100.00;93404.47;2112707;28;20030;-83
2021/07/10 02:29:36;;;;;;;7.03;4.03;;;;;;;8.23;100.00;93404.06;2112683;28;20046;-83
2021/07/10 02:30:37;;;;;;;5.70;4.10;;;;;;;8.26;100.00;93405.97;2112727;28;20019;-83
2021/07/10 02:31:37;;;;;;;6.15;4.07;;;;;;;8.21;100.00;93401.06;2121294;27;20031;-83
2021/07/10 02:32:39;;;;;;;6.88;3.78;;;;;;;8.19;100.00;93403.34;2112602;28;20027;-83
2021/07/10 02:33:40;;;;;;;4.05;3.67;;;;;;;8.23;100.00;93404.06;2104336;28;20472;-83
2021/07/10 02:34:40;;;;;;;5.15;4.03;;;;;;;8.24;100.00;93400.25;2104300;28;20040;-82
2021/07/10 02:35:43;;;;;;;4.28;3.88;;;;;;;8.26;100.00;93402.53;2112088;28;20012;-83
2021/07/10 02:36:44;;;;;;;5.10;4.05;;;;;;;8.28;100.00;93397.56;2090151;28;20116;-81
2021/07/10 02:37:47;;;;;;;4.35;3.92;;;;;;;8.21;100.00;93393.06;2095886;28;20425;-83
2021/07/10 02:38:48;;;;;;;5.80;4.25;;;;;;;8.19;100.00;93402.59;2108505;27;20159;-83
2021/07/10 02:39:49;;;;;;;5.18;3.88;;;;;;;8.19;100.00;93399.94;2121204;27;20034;-82
2021/07/10 02:40:50;;;;;;;4.32;3.92;;;;;;;8.22;100.00;93397.25;2112658;28;20030;-82
2021/07/10 02:41:50;;;;;;;5.75;4.00;;;;;;;8.18;100.00;93407.16;2112736;28;20019;-82
2021/07/10 02:42:51;;;;;;;5.93;4.15;;;;;;;8.14;100.00;93393.13;2121147;27;20019;-83
2021/07/10 02:43:52;;;;;;;4.35;3.88;;;;;;;8.14;100.00;93398.44;2121097;28;20039;-82
2021/07/10 02:44:53;;;;;;;6.05;3.78;;;;;;;8.16;100.00;93396.13;2112400;27;20024;-83
2021/07/10 02:45:53;;;;;;;6.95;4.43;;;;;;;8.18;100.00;93393.09;2112509;28;20030;-82
2021/07/10 02:46:55;;;;;;;5.03;3.83;;;;;;;8.24;100.00;93394.19;2112460;28;20019;-83
2021/07/10 02:47:57;;;;;;;8.50;4.45;;;;;;;8.29;100.00;93388.41;2112327;28;20023;-83
2021/07/10 02:48:58;;;;;;;7.20;4.38;;;;;;;8.15;100.00;93389.31;2104322;28;20024;-82
2021/07/10 02:49:59;;;;;;;7.40;4.00;;;;;;;8.11;100.00;93382.50;2112694;27;20031;-83
2021/07/10 02:51:00;;;;;;;6.80;4.28;;;;;;;8.11;100.00;93385.91;2112549;28;20110;-83
2021/07/10 02:52:01;;;;;;;6.55;4.00;;;;;;;8.12;100.00;93384.78;2112529;27;20081;-83
2021/07/10 02:53:04;;;;;;;5.53;4.38;;;;;;;8.16;100.00;93382.81;2120968;27;20076;-82
2021/07/10 02:54:06;;;;;;;4.80;4.18;;;;;;;8.12;100.00;93384.00;2112903;28;20027;-83
2021/07/10 02:55:08;;;;;;;6.85;4.00;;;;;;;8.13;100.00;93386.28;2104326;28;20066;-83
2021/07/10 02:56:08;;;;;;;5.45;4.05;;;;;;;8.09;100.00;93377.56;2113005;27;20070;-83
2021/07/10 02:57:09;;;;;;;7.28;4.07;;;;;;;8.12;100.00;93378.69;2112473;28;20015;-82
2021/07/10 02:58:10;;;;;;;6.75;4.32;;;;;;;8.12;100.00;93382.13;2103882;28;20025;-82
2021/07/10 02:59:10;;;;;;;4.30;3.90;;;;;;;8.11;100.00;93377.91;2104101;28;20017;-83
2021/07/10 03:00:14;;;;;;;9.48;4.55;;;;;;;8.11;100.00;93387.81;2103886;28;20070;-83
2021/07/10 03:01:15;;;;;;;5.20;4.10;;;;;;;8.13;100.00;93380.97;2111370;28;20591;-83
2021/07/10 03:02:16;;;;;;;4.47;3.80;;;;;;;8.12;100.00;93378.69;2104102;28;20028;-83
2021/07/10 03:03:16;;;;;;;7.47;4.53;;;;;;;8.13;100.00;93380.22;2104055;28;20032;-83
2021/07/10 03:04:17;;;;;;;6.00;4.15;;;;;;;8.06;100.00;93370.38;2120961;28;20024;-82
2021/07/10 03:05:18;;;;;;;8.93;4.15;;;;;;;7.99;100.00;93368.53;2111976;28;20028;-83
2021/07/10 03:06:18;;;;;;;6.43;4.70;;;;;;;8.04;100.00;93368.09;2103922;28;20473;-82
2021/07/10 03:07:19;;;;;;;6.50;4.05;;;;;;;8.04;100.00;93362.78;2080971;28;20026;-83
2021/07/10 03:08:21;;;;;;;6.68;4.60;;;;;;;8.02;100.00;93370.38;2095722;28;20021;-83
2021/07/10 03:09:22;;;;;;;4.88;4.05;;;;;;;8.00;100.00;93366.63;2101171;28;20027;-83
2021/07/10 03:10:26;;;;;;;5.32;4.18;;;;;;;8.05;100.00;93368.84;2095488;28;20048;-83
2021/07/10 03:11:27;;;;;;;6.50;4.38;;;;;;;8.02;100.00;93377.63;2096441;28;20453;-83
2021/07/10 03:12:28;;;;;;;5.68;4.57;;;;;;;7.95;100.00;93370.47;2095372;28;20048;-82
2021/07/10 03:13:29;;;;;;;5.40;4.30;;;;;;;7.98;100.00;93372.31;2095650;28;20677;-83
2021/07/10 03:14:29;;;;;;;8.48;4.05;;;;;;;8.02;100.00;93369.63;2092300;28;20334;-83
2021/07/10 03:15:30;;;;;;;5.70;3.53;;;;;;;7.96;100.00;93365.88;2093924;28;20107;-83
2021/07/10 03:16:31;;;;;;;5.43;4.30;;;;;;;7.98;100.00;93374.22;2095563;28;20033;-82
2021/07/10 03:17:32;;;;;;;6.55;4.38;;;;;;;8.02;100.00;93370.38;2098487;28;20572;-83
2021/07/10 03:18:33;;;;;;;7.55;4.07;;;;;;;7.96;100.00;93371.22;2106692;28;20027;-83
2021/07/10 03:19:34;;;;;;;4.00;3.60;;;;;;;7.92;100.00;93367.81;2090237;28;20017;-83
2021/07/10 03:20:34;;;;;;;7.95;3.78;;;;;;;7.90;100.00;93364.78;2090235;28;20028;-84
2021/07/10 03:21:35;;;;;;;4.40;4.03;;;;;;;7.97;100.00;93365.47;2090079;28;20466;-83
2021/07/10 03:22:37;;;;;;;6.13;4.13;;;;;;;7.98;100.00;93369.66;2098182;28;20024;-83
2021/07/10 03:23:37;;;;;;;4.20;3.80;;;;;;;7.99;100.00;93368.53;2089925;28;20025;-84
2021/07/10 03:24:38;;;;;;;6.63;3.75;;;;;;;7.91;100.00;93377.72;2090192;28;20473;-84
2021/07/10 03:25:41;;;;;;;5.38;4.00;;;;;;;7.96;100.00;93368.56;2090138;28;20025;-84
2021/07/10 03:26:42;;;;;;;5.75;3.95;;;;;;;7.96;100.00;93371.22;2098982;28;20464;-83
2021/07/10 03:27:45;;;;;;;5.47;3.92;;;;;;;7.88;100.00;93370.50;2090235;28;20024;-84
2021/07/10 03:28:45;;;;;;;4.80;4.20;;;;;;;7.89;100.00;93366.69;2098347;28;20024;-83
2021/07/10 03:29:47;;;;;;;4.63;4.03;;;;;;;7.91;100.00;93366.31;2098367;28;20028;-84
2021/07/10 03:30:53;;;;;;;6.65;4.28;;;;;;;7.90;100.00;93367.44;2106638;28;20027;-84
2021/07/10 03:31:54;;;;;;;5.68;4.22;;;;;;;7.88;100.00;93369.75;2107474;28;20407;-83
2021/07/10 03:32:55;;;;;;;5.30;4.22;;;;;;;7.92;100.00;93365.91;2106501;28;20024;-84
2021/07/10 03:33:56;;;;;;;7.15;4.07;;;;;;;7.96;100.00;93368.56;2098403;28;20026;-85
2021/07/10 03:34:56;;;;;;;7.25;3.78;;;;;;;7.89;100.00;93360.59;2090083;28;20032;-83
2021/07/10 03:35:57;;;;;;;6.15;4.03;;;;;;;7.95;100.00;93367.03;2098242;28;20512;-83
2021/07/10 03:36:58;;;;;;;6.78;3.88;;;;;;;7.92;100.00;93367.81;2102231;28;20035;-84
2021/07/10 03:37:58;;;;;;;5.63;4.10;;;;;;;7.87;100.00;93365.59;2106765;28;20019;-84
2021/07/10 03:38:59;;;;;;;5.05;4.43;;;;;;;7.93;100.00;93364.75;2098230;28;20035;-83
2021/07/10 03:40:00;;;;;;;5.53;4.28;;;;;;;7.94;100.00;93360.94;2090130;28;20029;-82
2021/07/10 03:41:01;;;;;;;4.55;4.15;;;;;;;7.91;100.00;93364.41;2098261;28;20115;-83
2021/07/10 03:42:02;;;;;;;5.35;4.10;;;;;;;7.93;100.00;93358.69;2081783;28;20037;-84
2021/07/10 03:43:04;;;;;;;6.68;3.90;;;;;;;7.84;100.00;93353.81;2081956;28;20072;-84
2021/07/10 03:44:05;;;;;;;5.13;3.95;;;;;;;7.91;100.00;93363.66;2090434;28;20021;-84
2021/07/10 03:45:08;;;;;;;4.32;3.90;;;;;;;7.86;100.00;93358.72;2105413;28;20136;-84
2021/07/10 03:46:08;;;;;;;9.38;4.25;;;;;;;7.92;100.00;93357.94;2098424;28;20031;-83
2021/07/10 03:47:09;;;;;;;7.15;4.40;;;;;;;7.94;100.00;93358.28;2089742;28;20021;-83
2021/07/10 03:48:10;;;;;;;5.47;4.32;;;;;;;7.93;100.00;93356.78;2097827;28;20086;-84
2021/07/10 03:49:13;;;;;;;6.55;3.80;;;;;;;7.95;100.00;93361.72;2098240;28;20524;-83
2021/07/10 03:50:14;;;;;;;5.05;4.22;;;;;;;7.99;100.00;93352.56;2090163;28;20023;-83
2021/07/10 03:51:15;;;;;;;4.00;3.67;;;;;;;8.00;100.00;93359.38;2098488;28;20021;-83
2021/07/10 03:52:16;;;;;;;4.25;3.85;;;;;;;8.00;100.00;93363.97;2106454;28;20678;-83
2021/07/10 03:53:17;;;;;;;5.60;4.10;;;;;;;8.05;100.00;93353.63;2098086;28;20024;-83
2021/07/10 03:54:17;;;;;;;5.88;4.15;;;;;;;8.02;100.00;93359.72;2098206;28;20096;-84
2021/07/10 03:55:18;;;;;;;5.70;3.72;;;;;;;8.05;100.00;93352.88;2106453;28;20027;-84
2021/07/10 03:56:19;;;;;;;6.85;4.45;;;;;;;8.04;100.00;93359.38;2106499;28;20031;-83
2021/07/10 03:57:20;;;;;;;7.88;4.03;;;;;;;8.11;100.00;93358.53;2098235;28;20032;-83
2021/07/10 03:58:21;;;;;;;6.63;3.72;;;;;;;8.13;100.00;93354.34;2097948;28;20028;-84
2021/07/10 03:59:21;;;;;;;10.43;4.00;;;;;;;8.13;100.00;93357.00;2098041;28;20028;-83
2021/07/10 04:00:23;;;;;;;4.80;4.30;;;;;;;8.10;100.00;93352.44;2097970;28;20024;-83
2021/07/10 04:01:23;;;;;;;7.05;4.00;;;;;;;8.15;100.00;93353.94;2098204;28;20025;-83
2021/07/10 04:02:24;;;;;;;6.22;3.95;;;;;;;8.18;100.00;93361.16;2098145;28;20056;-83
2021/07/10 04:03:25;;;;;;;4.55;4.15;;;;;;;8.19;100.00;93350.09;2089680;28;20017;-83
2021/07/10 04:04:26;;;;;;;8.90;4.38;;;;;;;8.21;100.00;93350.47;2089815;28;20098;-84
2021/07/10 04:05:26;;;;;;;5.45;4.10;;;;;;;8.15;100.00;93351.28;2097806;28;20029;-84
2021/07/10 04:06:27;;;;;;;7.95;4.75;;;;;;;8.16;100.00;93360.78;2089512;28;20374;-84
2021/07/10 04:07:30;;;;;;;6.78;4.22;;;;;;;8.24;100.00;93352.31;2081599;28;20128;-84
2021/07/10 04:08:31;;;;;;;4.25;3.85;;;;;;;8.24;100.00;93349.66;2098279;28;20028;-84
2021/07/10 04:09:32;;;;;;;5.28;4.45;;;;;;;8.28;100.00;93350.38;2089740;28;20421;-84
2021/07/10 04:10:32;;;;;;;5.70;4.70;;;;;;;8.32;100.00;93358.34;2089739;28;20033;-83
2021/07/10 04:11:33;;;;;;;5.30;4.30;;;;;;;8.38;100.00;93351.47;2089681;28;20116;-84
2021/07/10 04:12:34;;;;;;;6.43;4.90;;;;;;;8.40;100.00;93356.41;2097815;28;20029;-83
2021/07/10 04:13:34;;;;;;;6.20;3.80;;;;;;;8.38;100.00;93354.13;2089530;28;20470;-84
2021/07/10 04:14:37;;;;;;;5.22;4.32;;;;;;;8.46;100.00;93358.22;2097989;28;20035;-84
2021/07/10 04:15:37;;;;;;;7.20;4.32;;;;;;;8.47;100.00;93351.00;2090028;28;20021;-83
2021/07/10 04:16:38;;;;;;;5.40;4.22;;;;;;;8.49;100.00;93354.78;2089755;28;20054;-83
2021/07/10 04:17:39;;;;;;;5.50;4.28;;;;;;;8.57;100.00;93352.81;2089624;28;20021;-83
2021/07/10 04:18:40;;;;;;;7.53;4.68;;;;;;;8.61;100.00;93355.44;2106389;28;20035;-83
2021/07/10 04:19:41;;;;;;;7.03;4.72;;;;;;;8.65;100.00;93356.91;2106248;28;20468;-83
2021/07/10 04:20:41;;;;;;;5.82;4.72;;;;;;;8.69;100.00;93352.31;2098204;28;20069;-84
2021/07/10 04:21:42;;;;;;;5.18;4.68;;;;;;;8.72;100.00;93350.75;2106292;28;20027;-83
2021/07/10 04:22:43;;;;;;;6.72;4.63;;;;;;;8.73;100.00;93352.25;2097859;28;20546;-83
2021/07/10 04:23:44;;;;;;;5.10;4.30;;;;;;;8.77;100.00;93352.97;2097743;28;20066;-82
2021/07/10 04:24:44;;;;;;;7.07;4.70;;;;;;;8.85;100.00;93345.66;2097728;28;20070;-83
2021/07/10 04:25:45;;;;;;;5.70;4.80;;;;;;;8.90;100.00;93350.53;2089524;28;20028;-85
2021/07/10 04:26:46;;;;;;;6.00;4.90;;;;;;;8.88;100.00;93350.94;2097887;28;20020;-83
2021/07/10 04:27:47;;;;;;;8.52;4.50;;;;;;;8.95;100.00;93353.50;2089709;28;20028;-83
2021/07/10 04:28:49;;;;;;;5.85;4.47;;;;;;;9.00;100.00;93352.31;2097308;28;20397;-83
2021/07/10 04:29:49;;;;;;;8.02;4.10;;;;;;;9.08;100.00;93354.50;2105962;28;20463;-83
2021/07/10 04:30:50;;;;;;;5.38;4.72;;;;;;;9.13;100.00;93348.00;2114696;27;20134;-82
2021/07/10 04:31:51;;;;;;;5.57;4.45;;;;;;;9.18;100.00;93352.88;2106068;28;20039;-83
2021/07/10 04:32:51;;;;;;;6.18;4.45;;;;;;;9.23;100.00;93343.66;2089577;28;20029;-83
2021/07/10 04:33:52;;;;;;;6.32;4.88;;;;;;;9.25;100.00;93341.34;2089438;28;20079;-83
2021/07/10 04:34:53;;;;;;;6.68;5.20;;;;;;;9.32;100.00;93347.34;2089379;28;20075;-82
2021/07/10 04:35:54;;;;;;;7.72;5.10;;;;;;;9.34;100.00;93345.03;2106170;28;20091;-83
2021/07/10 04:36:55;;;;;;;5.65;5.15;;;;;;;9.45;100.00;93344.91;2089660;28;20029;-83
2021/07/10 04:37:56;;;;;;;5.65;5.05;;;;;;;9.50;100.00;93349.78;2084754;28;20021;-83
2021/07/10 04:38:56;;;;;;;5.97;4.82;;;;;;;9.58;100.00;93342.44;2097565;28;20052;-82
2021/07/10 04:39:57;;;;;;;7.22;5.40;;;;;;;9.61;100.00;93340.84;2089328;28;20029;-84
2021/07/10 04:40:58;;;;;;;6.13;5.53;;;;;;;9.70;100.00;93349.09;2089334;28;20115;-83
2021/07/10 04:41:59;;;;;;;6.22;5.38;;;;;;;9.75;100.00;93343.34;2097692;28;20025;-83
2021/07/10 04:43:00;;;;;;;8.05;5.38;;;;;;;9.78;100.00;93337.94;2089510;28;20114;-83
2021/07/10 04:44:01;;;;;;;6.00;5.20;;;;;;;9.87;100.00;93339.31;2097602;28;20021;-83
2021/07/10 04:45:04;;;;;;;5.13;4.63;;;;;;;9.91;100.00;93340.78;2097653;28;20435;-83
2021/07/10 04:46:05;;;;;;;6.38;5.18;;;;;;;9.98;100.00;93350.63;2089780;28;20200;-82
2021/07/10 04:47:06;;;;;;;8.93;5.75;;;;;;;10.04;100.00;93346.31;2097654;28;20130;-83
2021/07/10 04:48:07;;;;;;;11.57;5.97;;;;;;;10.09;100.00;93343.16;2105904;28;20042;-83
2021/07/10 04:49:08;;;;;;;6.22;5.50;;;;;;;10.16;100.00;93343.06;2105900;28;20109;-83
2021/07/10 04:50:10;;;;;;;6.75;5.47;;;;;;;10.23;100.00;93340.28;2097607;28;20074;-82